Flight Track Log - Related Links

Times and Time Zones

All times are in EDT time to prevent confusion due to time zone crossing. See the N508QS flight status page for this flight to view local times or setup timezone preferences in your user account.

Time Position Orientation Groundspeed Altitude Reporting Facility
EDT Latitude Longitude Course Direction KTS MPH feet Rate Location/Type
Tue 02:47:34 PM 37.6333 -122.3667 50° Northeast 181 208 900  Level Northern Cal TRACON
Tue 02:48:34 PM 37.6667 -122.3167 50° Northeast 210 242 5,100 3,632 Climbing Northern Cal TRACON
Tue 02:50:06 PM 37.7394 -122.2164 47° Northeast 246 283 10,100 3,255 Climbing Oakland Center
Tue 02:51:07 PM 37.7661 -122.1242 70° East 282 325 13,400 3,171 Climbing Oakland Center
Tue 02:52:09 PM 37.7942 -122.0231 71° East 303 349 16,600 2,927 Climbing Oakland Center
Tue 02:53:10 PM 37.8236 -121.9167 71° East 320 368 19,400 2,585 Climbing Oakland Center
Tue 02:54:12 PM 37.8550 -121.8019 71° East 343 395 21,900 2,488 Climbing Oakland Center
Tue 02:55:13 PM 37.8911 -121.6744 70° East 380 437 24,500 2,439 Climbing Oakland Center
Tue 02:56:15 PM 37.9281 -121.5397 71° East 404 465 26,900 2,634 Climbing Oakland Center
Tue 02:57:16 PM 37.9708 -121.3850 71° East 416 479 29,900 2,607 Climbing Oakland Center
Tue 02:58:17 PM 38.0092 -121.2456 71° East 420 483 32,200 2,146 Climbing Oakland Center
Tue 02:59:19 PM 38.0475 -121.1011 71° East 433 498 34,300 2,000 Climbing Oakland Center
Tue 03:00:20 PM 38.0814 -120.9525 74° East 440 506 36,300 1,918 Climbing Oakland Center
Tue 03:01:21 PM 38.1067 -120.7658 80° East 450 518 38,200 1,610 Climbing Oakland Center
Tue 03:02:23 PM 38.1275 -120.6075 80° East 458 527 39,600 1,366 Climbing Oakland Center
Tue 03:03:24 PM 38.1497 -120.4469 80° East 463 533 41,000 689 Climbing Oakland Center
Tue 03:04:25 PM 38.1700 -120.2817 81° East 475 547 41,000  Level Oakland Center
Tue 03:05:27 PM 38.1931 -120.1092 80° East 494 568 41,000  Level Oakland Center
Tue 03:06:28 PM 38.2144 -119.9403 81° East 487 560 41,000  Level Oakland Center
Tue 03:07:30 PM 38.2356 -119.7697 81° East 489 563 41,000  Level Oakland Center
Tue 03:08:31 PM 38.2581 -119.6006 80° East 487 560 41,000  Level Oakland Center
Tue 03:09:32 PM 38.2792 -119.4208 81° East 490 564 41,000  Level Oakland Center
Tue 03:10:34 PM 38.2992 -119.2503 81° East 489 563 41,000  Level Oakland Center
Tue 03:11:35 PM 38.3247 -119.0458 81° East 490 564 41,000  Level Oakland Center
Tue 03:12:36 PM 38.3444 -118.8750 82° East 490 564 41,000  Level Oakland Center
Tue 03:13:38 PM 38.3650 -118.7042 81° East 491 565 41,000  Level Oakland Center
Tue 03:14:39 PM 38.3839 -118.5328 82° East 490 564 41,000  Level Oakland Center
Tue 03:15:40 PM 38.4039 -118.3633 81° East 487 560 41,000  Level Oakland Center
Tue 03:16:42 PM 38.4225 -118.1928 82° East 488 562 41,000  Level Oakland Center
Tue 03:17:43 PM 38.4442 -118.0019 82° East 491 565 41,000  Level Oakland Center
Tue 03:18:44 PM 38.4631 -117.8283 82° East 493 567 41,000  Level Oakland Center
Tue 03:19:46 PM 38.4814 -117.6544 82° East 492 566 41,000  Level Oakland Center
Tue 03:20:35 PM 38.4969 -117.5158 82° East 490 564 41,000  Level Salt Lake Center
Tue 03:21:37 PM 38.5144 -117.3428 83° East 488 562 41,000  Level Salt Lake Center
Tue 03:22:39 PM 38.5189 -117.1669 88° East 492 566 41,000  Level Salt Lake Center
Tue 03:23:41 PM 38.5142 -116.9906 92° East 492 566 41,000  Level Salt Lake Center
Tue 03:24:43 PM 38.5100 -116.8144 92° East 492 566 41,000  Level Salt Lake Center
Tue 03:25:44 PM 38.5050 -116.6406 92° East 490 564 41,000  Level Salt Lake Center
Tue 03:26:46 PM 38.4997 -116.4317 92° East 490 564 41,000  Level Salt Lake Center
Tue 03:27:48 PM 38.4956 -116.2572 92° East 490 564 41,000  Level Salt Lake Center
Tue 03:28:50 PM 38.4900 -116.0853 92° East 488 562 41,000  Level Salt Lake Center
Tue 03:29:52 PM 38.4850 -115.9119 92° East 487 560 41,000  Level Salt Lake Center
Tue 03:30:54 PM 38.4797 -115.7383 92° East 489 563 41,000  Level Salt Lake Center
Tue 03:31:55 PM 38.4736 -115.5669 93° East 484 557 41,000  Level Salt Lake Center
Tue 03:32:57 PM 38.4681 -115.3953 92° East 485 558 41,000  Level Salt Lake Center
Tue 03:33:59 PM 38.4611 -115.1994 93° East 489 563 41,000  Level Salt Lake Center
Tue 03:35:01 PM 38.4553 -115.0278 92° East 486 559 41,000  Level Salt Lake Center
Tue 03:36:03 PM 38.4489 -114.8561 93° East 485 558 41,000  Level Salt Lake Center
Tue 03:37:05 PM 38.4417 -114.6853 93° East 484 557 41,000  Level Salt Lake Center
Tue 03:38:07 PM 38.4339 -114.5142 93° East 483 556 41,000  Level Salt Lake Center
Tue 03:39:08 PM 38.4261 -114.3078 93° East 484 557 41,000  Level Salt Lake Center
Tue 03:40:10 PM 38.4181 -114.1331 93° East 490 564 41,000  Level Salt Lake Center
Tue 03:41:12 PM 38.4103 -113.9575 93° East 496 571 41,000  Level Salt Lake Center
Tue 03:42:14 PM 38.4022 -113.7822 93° East 496 571 41,000  Level Salt Lake Center
Tue 03:43:16 PM 38.3928 -113.6078 94° East 493 567 41,000  Level Salt Lake Center
Tue 03:44:17 PM 38.3839 -113.4319 94° East 495 570 41,000  Level Salt Lake Center
Tue 03:45:19 PM 38.3742 -113.2553 94° East 498 573 41,000  Level Salt Lake Center
Tue 03:46:21 PM 38.3644 -113.0789 94° East 497 572 41,000  Level Salt Lake Center
Tue 03:47:22 PM 38.3447 -112.8672 97° East 500 575 41,000  Level Salt Lake Center
Tue 03:48:24 PM 38.3233 -112.6908 99° East 501 577 41,000  Level Salt Lake Center
Tue 03:49:26 PM 38.3019 -112.5153 99° East 500 575 41,000  Level Salt Lake Center
Tue 03:50:27 PM 38.2803 -112.3383 99° East 503 579 41,000  Level Salt Lake Center
Tue 03:51:29 PM 38.2586 -112.1625 99° East 503 579 41,000  Level Salt Lake Center
Tue 03:52:30 PM 38.2367 -111.9850 99° East 506 582 41,000  Level Salt Lake Center
Tue 03:53:32 PM 38.2136 -111.8089 99° East 504 580 41,000  Level Salt Lake Center
Tue 03:54:34 PM 38.1919 -111.6322 99° East 506 582 41,000  Level Salt Lake Center
Tue 03:55:35 PM 38.1686 -111.4539 99° East 509 586 41,000  Level Salt Lake Center
Tue 03:56:37 PM 38.1406 -111.2414 99° East 509 586 41,000  Level Salt Lake Center
Tue 03:57:38 PM 38.1161 -111.0644 100° East 509 586 41,000  Level Salt Lake Center
Tue 03:58:40 PM 38.0928 -110.8903 100° East 509 586 41,000  Level Salt Lake Center
Tue 03:59:41 PM 38.0703 -110.7219 100° East 506 582 41,000  Level Salt Lake Center
Tue 04:00:46 PM 38.0411 -110.5228 100° East 509 586 41,000  Level Denver Center
Tue 04:01:48 PM 38.0139 -110.3258 100° East 509 586 41,000  Level Denver Center
Tue 04:02:50 PM 37.9883 -110.1503 100° East 512 589 41,000  Level Denver Center
Tue 04:03:52 PM 37.9642 -109.9803 100° East 513 590 41,000  Level Denver Center
Tue 04:05:06 PM 37.9347 -109.7781 100° East 521 600 41,000  Level Denver Center
Tue 04:06:08 PM 37.9056 -109.5769 100° East 520 598 41,000  Level Denver Center
Tue 04:07:10 PM 37.8758 -109.3733 100° East 525 604 41,000  Level Denver Center
Tue 04:08:12 PM 37.8486 -109.1969 101° East 532 612 41,000  Level Denver Center
Tue 04:09:13 PM 37.8175 -108.9906 101° East 535 616 41,000  Level Denver Center
Tue 04:10:15 PM 37.7925 -108.8106 100° East 539 620 41,000  Level Denver Center
Tue 04:11:17 PM 37.7642 -108.6069 100° East 530 610 41,000  Level Denver Center
Tue 04:12:19 PM 37.7403 -108.4300 100° East 531 611 41,000  Level Denver Center
Tue 04:13:21 PM 37.7156 -108.2528 100° East 534 615 41,000  Level Denver Center
Tue 04:14:23 PM 37.6872 -108.0472 100° East 533 613 41,000  Level Denver Center
Tue 04:15:25 PM 37.6622 -107.8719 100° East 531 611 41,000  Level Denver Center
Tue 04:16:27 PM 37.6322 -107.6672 100° East 530 610 41,000  Level Denver Center
Tue 04:17:29 PM 37.6067 -107.4892 100° East 535 616 41,000  Level Denver Center
Tue 04:18:31 PM 37.5761 -107.2836 101° East 534 615 41,000  Level Denver Center
Tue 04:19:45 PM 37.5503 -107.1053 100° East 538 619 41,000  Level Denver Center
Tue 04:20:47 PM 37.5147 -106.8683 101° East 539 620 41,000  Level Denver Center
Tue 04:22:01 PM 37.4869 -106.6903 101° East 540 621 41,000  Level Denver Center
Tue 04:23:03 PM 37.4517 -106.4550 101° East 536 617 41,000  Level Denver Center
Tue 04:24:05 PM 37.4278 -106.3064 101° East 539 620 41,000  Level Denver Center
Tue 04:25:07 PM 37.3875 -106.0675 102° East 549 632 41,000  Level Denver Center
Tue 04:26:09 PM 37.3600 -105.8897 101° East 542 624 41,000  Level Denver Center
Tue 04:27:11 PM 37.3417 -105.6797 96° East 544 626 41,000  Level Denver Center
Tue 04:28:13 PM 37.3372 -105.4964 92° East 547 629 41,000  Level Denver Center
Tue 04:29:15 PM 37.3314 -105.2853 92° East 544 626 41,000  Level Denver Center
Tue 04:30:17 PM 37.3253 -105.0925 92° East 545 627 41,000  Level Denver Center
Tue 04:31:19 PM 37.3175 -104.9075 93° East 553 636 41,000 -48 Level Denver Center
Tue 04:32:21 PM 37.3089 -104.6914 93° East 556 640 40,900  Descending Denver Center
Tue 04:33:22 PM 37.3011 -104.5086 93° East 551 634 41,000 49 Climbing Denver Center
Tue 04:34:24 PM 37.2908 -104.3044 94° East 531 611 41,000  Level Denver Center
Tue 04:35:26 PM 37.2836 -104.1244 93° East 542 624 41,000  Level Denver Center
Tue 04:36:28 PM 37.2736 -103.9128 93° East 550 633 41,000  Level Denver Center
Tue 04:37:30 PM 37.2644 -103.7328 94° East 547 629 41,000  Level Denver Center
Tue 04:38:32 PM 37.2533 -103.5211 94° East 547 629 41,000  Level Denver Center
Tue 04:39:38 PM 37.2383 -103.3097 95° East 549 632 41,000  Level Albuquerque Center
Tue 04:40:40 PM 37.2247 -103.1303 95° East 545 627 41,000  Level Albuquerque Center
Tue 04:41:42 PM 37.2083 -102.9197 96° East 543 625 41,000  Level Albuquerque Center
Tue 04:42:43 PM 37.1942 -102.7394 96° East 544 626 41,000  Level Albuquerque Center
Tue 04:43:45 PM 37.1781 -102.5269 95° East 547 629 41,000  Level Albuquerque Center
Tue 04:44:41 PM 37.1656 -102.3717 96° East 550 633 41,000  Level Kansas City Center
Tue 04:45:44 PM 37.1489 -102.1606 96° East 548 631 41,000  Level Kansas City Center
Tue 04:46:46 PM 37.1339 -101.9800 96° East 546 628 41,000  Level Kansas City Center
Tue 04:47:48 PM 37.1156 -101.7697 96° East 546 628 41,000  Level Kansas City Center
Tue 04:48:50 PM 37.1006 -101.5908 96° East 543 625 41,000  Level Kansas City Center
Tue 04:49:52 PM 37.0811 -101.3808 97° East 546 628 41,000  Level Kansas City Center
Tue 04:50:54 PM 37.0647 -101.2017 96° East 545 627 41,000  Level Kansas City Center
Tue 04:51:56 PM 37.0461 -100.9947 96° East 542 624 41,000  Level Kansas City Center
Tue 04:52:58 PM 37.0339 -100.8164 95° East 541 623 41,000  Level Kansas City Center
Tue 04:54:00 PM 37.0206 -100.6058 94° East 546 628 41,000  Level Kansas City Center
Tue 04:55:02 PM 37.0103 -100.4256 94° East 547 629 41,000  Level Kansas City Center
Tue 04:56:04 PM 36.9958 -100.2156 95° East 546 628 41,000  Level Kansas City Center
Tue 04:57:06 PM 36.9836 -100.0411 95° East 544 626 41,000  Level Kansas City Center
Tue 04:58:08 PM 36.9711 -99.8511 95° East 546 628 41,000  Level Kansas City Center
Tue 04:59:10 PM 36.9539 -99.6253 95° East 542 624 41,000  Level Kansas City Center
Tue 05:00:13 PM 36.9397 -99.4372 95° East 541 623 41,000  Level Kansas City Center
Tue 05:01:15 PM 36.9253 -99.2497 95° East 541 623 41,000  Level Kansas City Center
Tue 05:02:17 PM 36.9100 -99.0633 96° East 539 620 41,000  Level Kansas City Center
Tue 05:03:19 PM 36.8931 -98.8656 96° East 566 651 41,000  Level Kansas City Center
Tue 05:04:21 PM 36.8806 -98.6856 95° East 535 616 41,000  Level Kansas City Center
Tue 05:05:23 PM 36.8644 -98.4972 96° East 540 621 41,000  Level Kansas City Center
Tue 05:06:25 PM 36.8453 -98.2836 96° East 540 621 41,000  Level Kansas City Center
Tue 05:07:27 PM 36.8278 -98.0858 96° East 539 620 41,000  Level Kansas City Center
Tue 05:08:29 PM 36.8119 -97.9028 96° East 534 615 41,000  Level Kansas City Center
Tue 05:09:31 PM 36.7969 -97.7339 96° East 532 612 41,000  Level Kansas City Center
Tue 05:10:33 PM 36.7822 -97.5494 96° East 536 617 41,000  Level Kansas City Center
Tue 05:11:35 PM 36.7664 -97.3544 96° East 545 627 41,000  Level Kansas City Center
Tue 05:12:37 PM 36.7436 -97.1322 97° East 541 623 41,000  Level Kansas City Center
Tue 05:13:39 PM 36.7197 -96.9792 101° East 519 597 41,000  Level Kansas City Center
Tue 05:14:41 PM 36.6925 -96.7972 101° East 529 609 41,000  Level Kansas City Center
Tue 05:15:43 PM 36.6581 -96.5811 101° East 531 611 41,000  Level Kansas City Center
Tue 05:16:45 PM 36.6314 -96.4014 100° East 528 608 41,000  Level Kansas City Center
Tue 05:17:47 PM 36.6017 -96.2217 102° East 529 609 41,000  Level Kansas City Center
Tue 05:18:49 PM 36.5733 -96.0425 101° East 528 608 41,000  Level Kansas City Center
Tue 05:19:51 PM 36.5439 -95.8625 101° East 529 609 41,000  Level Kansas City Center
Tue 05:21:55 PM 36.4831 -95.4828 101° East 530 610 41,000  Level Kansas City Center
Tue 05:22:57 PM 36.4514 -95.3008 102° East 534 615 41,000  Level Kansas City Center
Tue 05:23:59 PM 36.4158 -95.0967 102° East 538 619 41,000  Level Kansas City Center
Tue 05:25:01 PM 36.3828 -94.9056 102° East 534 615 41,000  Level Kansas City Center
Tue 05:26:03 PM 36.3514 -94.7253 102° East 534 615 41,000  Level Kansas City Center
Tue 05:27:05 PM 36.3194 -94.5447 102° East 535 616 41,000  Level Kansas City Center
Tue 05:28:07 PM 36.2869 -94.3661 103° East 532 612 41,000  Level Kansas City Center
Tue 05:28:44 PM 36.2706 -94.2619 101° East 531 611 41,000  Level Memphis Center
Tue 05:29:44 PM 36.2386 -94.0828 102° East 531 611 41,000  Level Memphis Center
Tue 05:30:44 PM 36.2083 -93.9042 102° East 531 611 41,000  Level Memphis Center
Tue 05:31:44 PM 36.1736 -93.7303 104° East 531 611 41,000  Level Memphis Center
Tue 05:32:44 PM 36.1428 -93.5517 102° East 531 611 41,000  Level Memphis Center
Tue 05:33:44 PM 36.1097 -93.3731 103° East 531 611 41,000  Level Memphis Center
Tue 05:34:44 PM 36.0783 -93.2000 103° East 531 611 41,000  Level Memphis Center
Tue 05:35:44 PM 36.0447 -93.0242 103° East 526 605 41,000  Level Memphis Center
Tue 05:36:44 PM 36.0089 -92.8461 104° East 526 605 41,000  Level Memphis Center
Tue 05:37:44 PM 35.9789 -92.6706 102° East 531 611 41,000  Level Memphis Center
Tue 05:38:44 PM 35.9422 -92.4928 104° East 531 611 41,000  Level Memphis Center
Tue 05:39:44 PM 35.9078 -92.3175 104° East 531 611 41,000  Level Memphis Center
Tue 05:40:44 PM 35.8747 -92.1425 103° East 531 611 41,000  Level Memphis Center
Tue 05:41:44 PM 35.8417 -91.9678 103° East 531 611 41,000  Level Memphis Center
Tue 05:42:44 PM 35.8064 -91.7906 104° East 526 605 41,000  Level Memphis Center
Tue 05:43:44 PM 35.7706 -91.6211 105° East 526 605 41,000  Level Memphis Center
Tue 05:44:44 PM 35.7369 -91.4464 103° East 526 605 41,000  Level Memphis Center
Tue 05:45:44 PM 35.6906 -91.2517 106° East 526 605 41,000  Level Memphis Center
Tue 05:46:44 PM 35.6644 -91.0803 101° East 520 598 41,000  Level Memphis Center
Tue 05:47:44 PM 35.6256 -90.9086 106° East 515 593 41,000  Level Memphis Center
Tue 05:48:44 PM 35.5908 -90.7347 104° East 515 593 41,000  Level Memphis Center
Tue 05:49:44 PM 35.5558 -90.5664 104° East 510 587 41,000  Level Memphis Center
Tue 05:50:44 PM 35.5206 -90.3953 104° East 510 587 41,000  Level Memphis Center
Tue 05:51:44 PM 35.4850 -90.2219 104° East 510 587 41,000  Level Memphis Center
Tue 05:52:44 PM 35.4472 -90.0511 105° East 510 587 41,000  Level Memphis Center
Tue 05:53:44 PM 35.4133 -89.8983 105° East 510 587 41,000  Level Memphis Center
Tue 05:54:44 PM 35.3792 -89.7306 104° East 504 580 41,000  Level Memphis Center
Tue 05:55:44 PM 35.3406 -89.5578 105° East 509 586 41,000  Level Memphis Center
Tue 05:56:44 PM 35.3019 -89.3853 105° East 514 592 41,000  Level Memphis Center
Tue 05:57:44 PM 35.2583 -89.1975 106° East 514 592 41,000  Level Memphis Center
Tue 05:58:44 PM 35.2192 -89.0278 106° East 514 592 41,000  Level Memphis Center
Tue 05:59:44 PM 35.1819 -88.8581 105° East 519 597 41,000  Level Memphis Center
Tue 06:00:44 PM 35.1422 -88.6889 106° East 514 592 41,000  Level Memphis Center
Tue 06:01:44 PM 35.1042 -88.5219 106° East 514 592 41,000  Level Memphis Center
Tue 06:02:44 PM 35.0686 -88.3756 106° East 506 582 41,000  Level Memphis Center
Tue 06:03:44 PM 35.0303 -88.2067 105° East 506 582 41,000  Level Memphis Center
Tue 06:04:44 PM 34.9894 -88.0278 106° East 532 612 41,000 -900 Level Memphis Center
Tue 06:05:44 PM 34.9489 -87.8642 107° East 520 598 39,200 -2,000 Descending Memphis Center
Tue 06:06:44 PM 34.9056 -87.6906 107° East 495 570 37,000 -2,100 Descending Memphis Center
Tue 06:07:44 PM 34.8664 -87.5250 106° East 501 577 35,000 -1,395 Descending Memphis Center
Tue 06:09:36 PM 34.7986 -87.2208 105° East 573 659 33,000 -698 Descending Atlanta Center
Tue 06:10:36 PM 34.7569 -87.0550 107° East 535 616 33,000 -300 Level Atlanta Center
Tue 06:11:36 PM 34.7150 -86.8892 107° East 516 594 32,400 -1,300 Descending Atlanta Center
Tue 06:12:36 PM 34.6747 -86.7286 107° East 502 578 30,400 -2,200 Descending Atlanta Center
Tue 06:13:36 PM 34.6386 -86.5711 106° East 489 563 28,000 -2,400 Descending Atlanta Center
Tue 06:14:36 PM 34.5997 -86.4261 108° East 475 547 25,600 -2,000 Descending Atlanta Center
Tue 06:15:36 PM 34.5628 -86.2736 106° East 464 534 24,000 -800 Descending Atlanta Center
Tue 06:16:36 PM 34.5258 -86.1289 107° East 464 534 24,000 -50 Level Atlanta Center
Tue 06:17:36 PM 34.4906 -85.9919 107° East 446 513 23,900 -1,250 Descending Atlanta Center
Tue 06:18:36 PM 34.4550 -85.8550 107° East 430 495 21,500 -2,600 Descending Atlanta Center
Tue 06:19:36 PM 34.4175 -85.7133 108° East 406 467 18,700 -2,600 Descending Atlanta Center
Tue 06:20:36 PM 34.3875 -85.5944 107° East 393 452 16,300 -2,250 Descending Atlanta Center
Tue 06:21:36 PM 34.3556 -85.4806 109° East 362 417 14,200 -2,200 Descending Atlanta Center
Tue 06:22:36 PM 34.3297 -85.3719 106° East 346 398 11,900 -2,000 Descending Atlanta Center
Tue 06:23:36 PM 34.3036 -85.2658 107° East 339 390 10,200 -1,700 Descending Atlanta Center
Tue 06:24:36 PM 34.2794 -85.1700 107° East 306 352 8,500 -1,100 Descending Atlanta Center
Tue 06:25:36 PM 34.2533 -85.0792 109° East 293 337 8,000 -250 Descending Atlanta Center
Tue 06:26:36 PM 34.2269 -84.9808 108° East 293 337 8,000  Level Atlanta Center
Tue 06:27:36 PM 34.2044 -84.8953 108° East 298 343 8,000 -350 Level Atlanta Center
Tue 06:28:36 PM 34.1656 -84.8094 119° Southeast 292 336 7,300 -1,100 Descending Atlanta Center
Tue 06:29:36 PM 34.1450 -84.7189 105° East 287 330 5,800 -1,150 Descending Atlanta Center
Tue 06:30:36 PM 34.1206 -84.6283 108° East 282 325 5,000 -400 Descending Atlanta Center
Tue 06:31:36 PM 34.1000 -84.5456 107° East 277 319 5,000  Level Atlanta Center
Tue 06:32:36 PM 34.0775 -84.4525 106° East 266 306 5,000 -750 Level Atlanta Center
Tue 06:33:36 PM 34.0547 -84.3672 108° East 266 306 3,500 -741 Descending Atlanta Center
Tue 06:35:18 PM 34.0167 -84.2500 111° Southeast 209 241 3,000 -259 Descending Atlanta TRACON
Tue 06:36:18 PM 33.9667 -84.2500 180° South 174 200 2,800 -550 Descending Atlanta TRACON
Tue 06:37:18 PM 33.9333 -84.2833 220° Southwest 157 181 1,900 -900 Descending Atlanta TRACON
Tue 06:39:00 PM 33.8756 -84.3020 195° South  Level Estimated
Tue 06:46:00 PM 33.8756 -84.3020 195° South  Level Estimated
Tue 06:47:00 PM 33.8756 -84.3020 195° South  Level Estimated

Login

Don't have an account? Register now (free) for customized features, flight alerts, and more!